Bonum — CRA5490 — position and weather

sailwx.info

Track history (hours):
 
Tides and Currents Weather Stations Pressure Air Temp Water Temp Dewpoint Dewpoint Depression Visibility Wind Speed Wind Dir Waves Ship Positions

Bonum

Last reported at 2014-Aug-31 15:17 UTC. Time now 2014-Sep-03 05:00 UTC.
Position N 40°32' E 014°14'.

Length 38 m; draft 3.2 m.

MMSI: 255910770.

Date/timePositionNaut miles runAvg speedWind from/ knotsBaromVisibWave heightAir tempDewpointWater temp
2014-Aug-31 15:17N 40°32' E 014°14'0 0.0
2014-Aug-31 11:07N 40°32' E 014°14'0 0.0
2014-Aug-31 10:33N 40°32' E 014°14'0 0.0
2014-Aug-31 09:33N 40°32' E 014°14'0 0.0
2014-Aug-30 22:25N 40°32' E 014°14'0 0.0
2014-Aug-30 21:33N 40°32' E 014°14'11 1.6
2014-Aug-30 14:26N 40°40' E 014°04'6 6.7
2014-Aug-30 13:33N 40°44' E 013°58'0 0.0
2014-Aug-30 12:33N 40°44' E 013°58'0 0.0
2014-Aug-30 11:33N 40°44' E 013°58'0 0.0
2014-Aug-30 10:33N 40°44' E 013°58'0 0.0
2014-Aug-29 21:20N 40°44' E 013°58'17 0.6
2014-Aug-28 16:32N 40°32' E 014°14'0 0.0
2014-Aug-28 15:06N 40°32' E 014°14'0 0.0
2014-Aug-28 14:28N 40°32' E 014°14'0 0.0
2014-Aug-28 13:31N 40°32' E 014°14'0 0.0
2014-Aug-28 12:33N 40°32' E 014°14'0 0.0
2014-Aug-28 11:32N 40°32' E 014°14'0 0.0
2014-Aug-28 10:33N 40°32' E 014°14'0 0.0
2014-Aug-28 09:33N 40°32' E 014°14'0 0.0
2014-Aug-28 08:33N 40°32' E 014°14'0 0.0
2014-Aug-28 07:33N 40°32' E 014°14'0 0.0
2014-Aug-27 22:33N 40°32' E 014°14'17 0.7
2014-Aug-26 22:12N 40°50' E 014°13'0 0.0
2014-Aug-26 21:33N 40°50' E 014°13'13 0.3
2014-Aug-24 22:33N 40°43' E 013°58'20 0.9
2014-Aug-23 23:28N 40°38' E 014°24'  
Track history (hours):
 
Tides and Currents Weather Stations Pressure Air Temp Water Temp Dewpoint Dewpoint Depression Visibility Wind Speed Wind Dir Waves Ship Positions

Bonum

Last reported at 2014-Aug-31 15:17 UTC. Time now 2014-Sep-03 05:00 UTC.
Position N 40°32' E 014°14'.

Length 38 m; draft 3.2 m.

MMSI: 255910770.

Date/timePositionNaut miles runAvg speedWind from/ knotsBaromVisibWave heightAir tempDewpointWater temp
2014-Aug-31 15:17N 40°32' E 014°14'0 0.0
2014-Aug-31 11:07N 40°32' E 014°14'0 0.0
2014-Aug-31 10:33N 40°32' E 014°14'0 0.0
2014-Aug-31 09:33N 40°32' E 014°14'0 0.0
2014-Aug-30 22:25N 40°32' E 014°14'0 0.0
2014-Aug-30 21:33N 40°32' E 014°14'11 1.6
2014-Aug-30 14:26N 40°40' E 014°04'6 6.7
2014-Aug-30 13:33N 40°44' E 013°58'0 0.0
2014-Aug-30 12:33N 40°44' E 013°58'0 0.0
2014-Aug-30 11:33N 40°44' E 013°58'0 0.0
2014-Aug-30 10:33N 40°44' E 013°58'0 0.0
2014-Aug-29 21:20N 40°44' E 013°58'17 0.6
2014-Aug-28 16:32N 40°32' E 014°14'0 0.0
2014-Aug-28 15:06N 40°32' E 014°14'0 0.0
2014-Aug-28 14:28N 40°32' E 014°14'0 0.0
2014-Aug-28 13:31N 40°32' E 014°14'0 0.0
2014-Aug-28 12:33N 40°32' E 014°14'0 0.0
2014-Aug-28 11:32N 40°32' E 014°14'0 0.0
2014-Aug-28 10:33N 40°32' E 014°14'0 0.0
2014-Aug-28 09:33N 40°32' E 014°14'0 0.0
2014-Aug-28 08:33N 40°32' E 014°14'0 0.0
2014-Aug-28 07:33N 40°32' E 014°14'0 0.0
2014-Aug-27 22:33N 40°32' E 014°14'17 0.7
2014-Aug-26 22:12N 40°50' E 014°13'0 0.0
2014-Aug-26 21:33N 40°50' E 014°13'13 0.3
2014-Aug-24 22:33N 40°43' E 013°58'20 0.9
2014-Aug-23 23:28N 40°38' E 014°24'  

Dump ship's entire track history